createdAt,value
2022-11-05T00:02:00.334Z,92.48
2022-11-05T00:04:45.726Z,91.83
2022-11-05T00:07:41.369Z,91.74
2022-11-05T00:10:22.959Z,91.53
2022-11-05T00:13:08.389Z,91.08
2022-11-05T00:15:53.821Z,90.93
2022-11-05T00:18:20.562Z,90.64
2022-11-05T00:20:47.105Z,90.70
2022-11-05T00:23:32.059Z,91.11
2022-11-05T00:26:00.117Z,91.18
2022-11-05T00:28:27.461Z,91.26
2022-11-05T00:30:54.746Z,91.53
2022-11-05T00:33:21.346Z,91.44
2022-11-05T00:35:47.923Z,91.52
2022-11-05T00:38:14.450Z,91.56
2022-11-05T00:40:41.052Z,91.47
2022-11-05T00:43:25.970Z,91.11
2022-11-05T00:45:52.518Z,91.09
2022-11-05T00:48:37.701Z,89.53
2022-11-05T00:51:04.317Z,88.35
2022-11-05T00:53:30.967Z,88.33
2022-11-05T00:55:57.650Z,87.73
2022-11-05T00:58:24.339Z,88.45
2022-11-05T01:00:52.307Z,88.36
2022-11-05T01:03:20.734Z,88.50
2022-11-05T01:05:48.764Z,88.38
2022-11-05T01:08:16.457Z,88.75
2022-11-05T01:10:44.152Z,88.83
2022-11-05T01:13:13.241Z,88.77
2022-11-05T01:15:40.413Z,88.74
2022-11-05T01:18:07.080Z,89.15
2022-11-05T01:20:33.844Z,89.41
2022-11-05T01:23:00.490Z,89.57
2022-11-05T01:25:27.107Z,89.50
2022-11-05T01:27:53.763Z,89.79
2022-11-05T01:30:20.535Z,89.65
2022-11-05T01:32:47.121Z,87.90
2022-11-05T01:35:14.649Z,88.74
2022-11-05T01:37:41.533Z,88.98
2022-11-05T01:40:10.267Z,89.22
2022-11-05T01:42:36.888Z,88.84
2022-11-05T01:45:18.335Z,88.52
2022-11-05T01:48:11.331Z,88.41
2022-11-05T01:50:41.723Z,88.43
2022-11-05T01:53:11.389Z,87.63
2022-11-05T01:55:40.920Z,87.41
2022-11-05T01:58:09.494Z,87.79
2022-11-05T02:00:36.427Z,88.32
2022-11-05T02:03:03.149Z,88.19
2022-11-05T02:05:30.254Z,87.23
2022-11-05T02:07:56.933Z,87.85
2022-11-05T02:10:23.962Z,87.98
2022-11-05T02:12:50.549Z,87.96
2022-11-05T02:15:43.314Z,87.51
2022-11-05T02:18:18.549Z,87.29
2022-11-05T02:20:52.371Z,88.00
2022-11-05T02:23:19.048Z,87.86
2022-11-05T02:25:45.571Z,88.28
2022-11-05T02:28:30.650Z,88.09
2022-11-05T02:31:02.575Z,88.05
2022-11-05T02:33:34.544Z,88.04
2022-11-05T02:36:19.836Z,87.70
2022-11-05T02:38:54.460Z,87.51
2022-11-05T02:41:30.498Z,87.85
2022-11-05T02:44:11.492Z,87.88
2022-11-05T02:46:58.339Z,87.37
2022-11-05T02:49:29.104Z,87.62
2022-11-05T02:52:01.618Z,87.99
2022-11-05T02:54:28.204Z,88.41
2022-11-05T02:56:56.935Z,88.27
2022-11-05T02:59:23.487Z,88.38
2022-11-05T03:01:51.155Z,88.67
2022-11-05T03:04:19.927Z,88.68
2022-11-05T03:06:55.339Z,88.44
2022-11-05T03:09:39.833Z,88.60
2022-11-05T03:12:12.639Z,88.98
2022-11-05T03:14:39.157Z,89.12
2022-11-05T03:17:24.239Z,88.52
2022-11-05T03:20:02.800Z,88.83
2022-11-05T03:22:34.590Z,89.02
2022-11-05T03:25:05.811Z,88.99
2022-11-05T03:27:35.193Z,88.88
2022-11-05T03:30:09.596Z,89.27
2022-11-05T03:32:38.585Z,88.93
2022-11-05T03:35:12.536Z,88.87
2022-11-05T03:37:41.451Z,88.39
2022-11-05T03:40:09.427Z,88.28
2022-11-05T03:42:38.841Z,88.63
2022-11-05T03:45:08.667Z,88.63
2022-11-05T03:47:37.807Z,89.24
2022-11-05T03:50:07.210Z,89.26
2022-11-05T03:52:37.730Z,89.42
2022-11-05T03:55:05.328Z,89.35
2022-11-05T03:57:34.542Z,89.25
2022-11-05T04:00:01.144Z,89.46
2022-11-05T04:02:28.029Z,89.41
2022-11-05T04:04:54.974Z,88.94
2022-11-05T04:07:40.184Z,89.50
2022-11-05T04:10:25.063Z,89.23
2022-11-05T04:13:10.645Z,89.12
2022-11-05T04:15:55.914Z,89.24
2022-11-05T04:18:22.485Z,89.10
2022-11-05T04:21:18.388Z,89.23
2022-11-05T04:24:03.369Z,89.33
2022-11-05T04:26:29.963Z,89.39
2022-11-05T04:29:14.908Z,89.59
2022-11-05T04:31:41.594Z,89.72
2022-11-05T04:34:08.271Z,90.05
2022-11-05T04:36:34.867Z,90.02
2022-11-05T04:39:01.511Z,90.09
2022-11-05T04:41:28.437Z,90.40
2022-11-05T04:43:55.095Z,90.43
2022-11-05T04:46:21.704Z,90.67
2022-11-05T04:48:48.314Z,90.67
2022-11-05T04:51:15.015Z,90.77
2022-11-05T04:53:41.643Z,90.72
2022-11-05T04:56:11.328Z,90.65
2022-11-05T04:58:41.583Z,90.84
2022-11-05T05:01:18.506Z,90.71
2022-11-05T05:03:46.775Z,90.25
2022-11-05T05:06:13.314Z,90.15
2022-11-05T05:08:39.887Z,89.77
2022-11-05T05:11:08.106Z,90.10
2022-11-05T05:13:34.896Z,90.08
2022-11-05T05:16:05.292Z,90.18
2022-11-05T05:18:31.831Z,90.12
2022-11-05T05:21:19.493Z,90.18
2022-11-05T05:23:49.084Z,90.29
2022-11-05T05:26:16.277Z,89.89
2022-11-05T05:28:42.901Z,90.00
2022-11-05T05:31:09.545Z,90.10
2022-11-05T05:33:36.108Z,90.32
2022-11-05T05:36:07.112Z,90.32
2022-11-05T05:38:37.581Z,90.28
2022-11-05T05:41:04.222Z,90.29
2022-11-05T05:43:31.707Z,90.28
2022-11-05T05:46:04.976Z,89.95
2022-11-05T05:48:31.696Z,90.25
2022-11-05T05:51:02.208Z,90.09
2022-11-05T05:53:28.931Z,89.98
2022-11-05T05:55:56.183Z,89.98
2022-11-05T05:58:29.651Z,90.00
2022-11-05T06:00:59.799Z,89.97
2022-11-05T06:03:26.466Z,89.90
2022-11-05T06:05:53.024Z,89.90
2022-11-05T06:08:19.642Z,89.89
2022-11-05T06:10:52.569Z,89.14
2022-11-05T06:13:19.180Z,89.29
2022-11-05T06:15:45.729Z,89.33
2022-11-05T06:18:12.294Z,89.57
2022-11-05T06:20:38.921Z,89.41
2022-11-05T06:23:05.539Z,89.52
2022-11-05T06:25:34.916Z,89.37
2022-11-05T06:28:03.817Z,89.73
2022-11-05T06:30:31.017Z,89.21
2022-11-05T06:33:01.580Z,88.88
2022-11-05T06:35:28.138Z,88.65
2022-11-05T06:37:58.624Z,88.54
2022-11-05T06:40:25.239Z,88.09
2022-11-05T06:42:52.813Z,88.41
2022-11-05T06:45:19.558Z,88.68
2022-11-05T06:47:46.105Z,88.63
2022-11-05T06:50:12.723Z,88.78
2022-11-05T06:52:41.269Z,88.70
2022-11-05T06:55:08.272Z,88.82
2022-11-05T06:57:37.086Z,88.84
2022-11-05T07:00:07.828Z,89.04
2022-11-05T07:02:34.835Z,89.16
2022-11-05T07:05:01.437Z,89.16
2022-11-05T07:07:29.986Z,88.96
2022-11-05T07:09:56.511Z,89.06
2022-11-05T07:12:23.127Z,89.10
2022-11-05T07:14:49.683Z,89.18
2022-11-05T07:17:19.307Z,89.17
2022-11-05T07:19:45.909Z,89.10
2022-11-05T07:22:12.475Z,89.33
2022-11-05T07:24:39.039Z,89.21
2022-11-05T07:27:05.665Z,89.37
2022-11-05T07:29:32.231Z,88.84
2022-11-05T07:31:58.792Z,88.75
2022-11-05T07:34:25.801Z,88.69
2022-11-05T07:36:52.369Z,88.85
2022-11-05T07:39:18.942Z,88.78
2022-11-05T07:41:45.565Z,88.84
2022-11-05T07:44:12.156Z,88.93
2022-11-05T07:46:38.743Z,88.71
2022-11-05T07:49:05.563Z,88.78
2022-11-05T07:51:32.208Z,88.68
2022-11-05T07:53:58.853Z,88.70
2022-11-05T07:56:25.602Z,88.54
2022-11-05T07:58:52.289Z,86.60
2022-11-05T08:01:19.283Z,85.09
2022-11-05T08:03:46.341Z,84.72
2022-11-05T08:06:12.966Z,84.87
2022-11-05T08:08:39.546Z,86.59
2022-11-05T08:11:07.216Z,86.67
2022-11-05T08:13:34.174Z,86.73
2022-11-05T08:16:02.041Z,87.14
2022-11-05T08:18:32.007Z,87.00
2022-11-05T08:21:00.106Z,87.13
2022-11-05T08:23:27.138Z,86.60
2022-11-05T08:25:53.946Z,84.09
2022-11-05T08:28:21.895Z,85.35
2022-11-05T08:30:50.068Z,85.30
2022-11-05T08:33:16.885Z,85.51
2022-11-05T08:35:43.744Z,85.83
2022-11-05T08:38:13.646Z,85.23
2022-11-05T08:40:40.294Z,84.59
2022-11-05T08:43:07.791Z,84.62
2022-11-05T08:45:35.516Z,84.06
2022-11-05T08:48:12.958Z,83.76
2022-11-05T08:50:39.775Z,84.20
2022-11-05T08:53:06.547Z,83.30
2022-11-05T08:55:33.429Z,83.46
2022-11-05T08:58:02.078Z,83.60
2022-11-05T09:00:29.592Z,83.60
2022-11-05T09:02:58.310Z,83.44
2022-11-05T09:05:24.896Z,82.66
2022-11-05T09:07:54.100Z,83.19
2022-11-05T09:10:23.436Z,83.17
2022-11-05T09:12:50.018Z,83.61
2022-11-05T09:15:16.626Z,83.95
2022-11-05T09:17:43.192Z,84.00
2022-11-05T09:20:11.242Z,84.25
2022-11-05T09:22:42.973Z,84.22
2022-11-05T09:25:10.143Z,83.08
2022-11-05T09:27:36.678Z,82.65
2022-11-05T09:30:03.835Z,83.59
2022-11-05T09:32:31.465Z,83.99
2022-11-05T09:35:00.306Z,84.13
2022-11-05T09:37:28.035Z,84.26
2022-11-05T09:39:54.975Z,84.17
2022-11-05T09:42:22.858Z,83.23
2022-11-05T09:44:52.716Z,83.35
2022-11-05T09:47:22.818Z,83.57
2022-11-05T09:49:50.382Z,83.58
2022-11-05T09:52:21.857Z,83.58
2022-11-05T09:54:50.349Z,83.89
2022-11-05T09:57:19.659Z,83.90
2022-11-05T09:59:49.205Z,83.87
2022-11-05T10:02:18.529Z,83.72
2022-11-05T10:04:46.496Z,83.74
2022-11-05T10:07:15.818Z,84.08
2022-11-05T10:09:47.733Z,84.15
2022-11-05T10:12:20.467Z,84.15
2022-11-05T10:14:48.697Z,83.34
2022-11-05T10:17:22.414Z,83.52
2022-11-05T10:19:54.418Z,83.30
2022-11-05T10:22:21.047Z,83.68
2022-11-05T10:24:49.293Z,83.94
2022-11-05T10:27:24.110Z,84.19
2022-11-05T10:29:50.804Z,84.16
2022-11-05T10:32:31.343Z,83.72
2022-11-05T10:34:59.848Z,82.79
2022-11-05T10:37:27.140Z,83.67
2022-11-05T10:39:54.154Z,83.71
2022-11-05T10:42:29.789Z,83.57
2022-11-05T10:45:14.482Z,82.87
2022-11-05T10:47:41.016Z,82.03
2022-11-05T10:50:13.163Z,82.46
2022-11-05T10:52:53.845Z,83.55
2022-11-05T10:55:25.389Z,83.69
2022-11-05T10:57:52.407Z,83.40
2022-11-05T11:00:20.658Z,83.59
2022-11-05T11:02:48.306Z,82.58
2022-11-05T11:05:23.797Z,82.84
2022-11-05T11:07:54.283Z,83.24
2022-11-05T11:10:25.483Z,83.17
2022-11-05T11:12:53.050Z,81.48
2022-11-05T11:15:26.099Z,82.72
2022-11-05T11:17:52.926Z,82.26
2022-11-05T11:20:22.029Z,82.78
2022-11-05T11:23:02.668Z,83.11
2022-11-05T11:25:37.805Z,83.09
2022-11-05T11:28:05.615Z,83.20
2022-11-05T11:30:32.436Z,83.12
2022-11-05T11:33:04.662Z,82.63
2022-11-05T11:35:31.398Z,82.95
2022-11-05T11:38:00.868Z,82.80
2022-11-05T11:40:31.849Z,82.90
2022-11-05T11:43:00.949Z,82.98
2022-11-05T11:45:38.920Z,83.27
2022-11-05T11:48:06.365Z,83.42
2022-11-05T11:50:34.896Z,83.07
2022-11-05T11:53:19.849Z,82.80
2022-11-05T11:55:55.612Z,82.66
2022-11-05T11:58:23.912Z,82.59
2022-11-05T12:00:55.778Z,82.64
2022-11-05T12:03:29.391Z,82.99
2022-11-05T12:06:05.927Z,83.23
2022-11-05T12:08:54.295Z,83.00
2022-11-05T12:11:29.684Z,82.82
2022-11-05T12:14:26.952Z,83.13
2022-11-05T12:16:53.522Z,83.30
2022-11-05T12:19:24.733Z,83.37
2022-11-05T12:22:00.300Z,82.93
2022-11-05T12:24:45.533Z,83.37
2022-11-05T12:27:22.122Z,82.88
2022-11-05T12:29:51.466Z,83.34
2022-11-05T12:32:18.081Z,82.95
2022-11-05T12:34:53.155Z,82.06
2022-11-05T12:37:38.571Z,82.80
2022-11-05T12:40:18.078Z,82.96
2022-11-05T12:42:44.589Z,82.87
2022-11-05T12:45:19.976Z,82.60
2022-11-05T12:47:57.425Z,82.67
2022-11-05T12:50:44.207Z,82.88
2022-11-05T12:53:29.746Z,83.20
2022-11-05T12:55:59.545Z,83.04
2022-11-05T12:58:31.565Z,82.81
2022-11-05T13:01:04.046Z,83.06
2022-11-05T13:03:41.958Z,82.69
2022-11-05T13:06:31.405Z,83.31
2022-11-05T13:09:00.884Z,82.94
2022-11-05T13:11:36.129Z,82.65
2022-11-05T13:14:14.766Z,83.06
2022-11-05T13:16:47.709Z,82.88
2022-11-05T13:19:36.999Z,83.42
2022-11-05T13:22:09.620Z,83.55
2022-11-05T13:24:48.978Z,83.52
2022-11-05T13:27:18.375Z,83.58
2022-11-05T13:29:47.667Z,83.22
2022-11-05T13:32:23.336Z,83.50
2022-11-05T13:34:50.131Z,83.88
2022-11-05T13:37:39.232Z,83.68
2022-11-05T13:40:09.073Z,83.70
2022-11-05T13:42:35.601Z,83.92
2022-11-05T13:45:02.255Z,83.95
2022-11-05T13:47:38.865Z,83.71
2022-11-05T13:50:24.059Z,84.02
2022-11-05T13:52:56.455Z,84.16
2022-11-05T13:55:41.522Z,84.23
2022-11-05T13:58:08.058Z,84.36
2022-11-05T14:01:07.095Z,84.45
2022-11-05T14:03:33.744Z,84.42
2022-11-05T14:06:09.968Z,84.52
2022-11-05T14:08:46.400Z,84.02
2022-11-05T14:11:25.729Z,84.36
2022-11-05T14:13:55.358Z,84.01
2022-11-05T14:16:25.752Z,84.21
2022-11-05T14:19:10.819Z,84.63
2022-11-05T14:21:48.404Z,84.68
2022-11-05T14:24:24.063Z,84.54
2022-11-05T14:27:02.743Z,84.48
2022-11-05T14:29:39.967Z,84.39
2022-11-05T14:32:26.272Z,84.47
2022-11-05T14:35:01.108Z,84.52
2022-11-05T14:37:40.453Z,84.96
2022-11-05T14:40:36.556Z,84.51
2022-11-05T14:43:05.960Z,84.93
2022-11-05T14:45:37.627Z,85.07
2022-11-05T14:48:22.822Z,85.09
2022-11-05T14:50:49.811Z,85.42
2022-11-05T14:53:28.354Z,85.73
2022-11-05T14:56:00.951Z,85.62
2022-11-05T14:58:37.306Z,85.34
2022-11-05T15:01:08.279Z,85.69
2022-11-05T15:03:46.011Z,85.68
2022-11-05T15:06:20.050Z,85.61
2022-11-05T15:08:49.664Z,85.50
2022-11-05T15:11:20.254Z,85.45
2022-11-05T15:13:55.943Z,85.47
2022-11-05T15:16:30.070Z,85.93
2022-11-05T15:18:56.969Z,85.66
2022-11-05T15:21:24.368Z,85.86
2022-11-05T15:23:54.323Z,85.81
2022-11-05T15:26:29.307Z,85.99
2022-11-05T15:28:56.263Z,85.96
2022-11-05T15:31:31.619Z,85.88
2022-11-05T15:34:16.762Z,86.56
2022-11-05T15:36:49.167Z,86.27
2022-11-05T15:39:42.155Z,86.20
2022-11-05T15:42:13.503Z,86.02
2022-11-05T15:44:44.350Z,86.10
2022-11-05T15:47:13.775Z,86.32
2022-11-05T15:49:41.899Z,86.13
2022-11-05T15:52:10.964Z,86.42
2022-11-05T15:54:38.232Z,86.53
2022-11-05T15:57:05.206Z,86.32
2022-11-05T15:59:31.902Z,86.45
2022-11-05T16:02:03.697Z,86.41
2022-11-05T16:04:34.671Z,86.36
2022-11-05T16:07:07.009Z,86.46
2022-11-05T16:09:35.984Z,86.36
2022-11-05T16:12:21.073Z,86.40
2022-11-05T16:15:06.376Z,86.47
2022-11-05T16:17:51.897Z,86.26
2022-11-05T16:20:19.711Z,86.40
2022-11-05T16:22:47.251Z,86.42
2022-11-05T16:25:22.946Z,86.59
2022-11-05T16:27:49.560Z,86.20
2022-11-05T16:30:17.434Z,86.57
2022-11-05T16:32:44.091Z,86.23
2022-11-05T16:35:21.367Z,86.83
2022-11-05T16:37:52.035Z,86.65
2022-11-05T16:40:23.036Z,86.69
2022-11-05T16:42:51.615Z,86.51
2022-11-05T16:45:22.809Z,87.04
2022-11-05T16:47:50.189Z,86.91
2022-11-05T16:50:22.223Z,86.90
2022-11-05T16:52:49.020Z,87.30
2022-11-05T16:55:16.425Z,87.34
2022-11-05T16:57:44.536Z,87.31
2022-11-05T17:00:13.411Z,86.95
2022-11-05T17:02:40.308Z,86.69
2022-11-05T17:05:07.686Z,86.71
2022-11-05T17:07:40.077Z,87.05
2022-11-05T17:10:07.999Z,87.52
2022-11-05T17:12:35.791Z,87.40
2022-11-05T17:15:02.471Z,87.01
2022-11-05T17:17:30.687Z,87.11
2022-11-05T17:19:57.246Z,87.36
2022-11-05T17:22:23.833Z,87.15
2022-11-05T17:24:50.420Z,86.97
2022-11-05T17:27:17.011Z,86.94
2022-11-05T17:29:43.641Z,87.25
2022-11-05T17:32:10.285Z,87.15
2022-11-05T17:34:36.924Z,86.93
2022-11-05T17:37:03.543Z,87.10
2022-11-05T17:39:31.779Z,87.27
2022-11-05T17:41:58.707Z,87.08
2022-11-05T17:44:25.753Z,87.14
2022-11-05T17:46:52.350Z,87.20
2022-11-05T17:49:18.926Z,86.91
2022-11-05T17:51:45.468Z,87.40
2022-11-05T17:54:12.052Z,87.50
2022-11-05T17:56:44.672Z,87.31
2022-11-05T17:59:11.541Z,87.55
2022-11-05T18:01:43.356Z,87.41
2022-11-05T18:04:10.646Z,87.40
2022-11-05T18:06:37.731Z,87.42
2022-11-05T18:09:05.309Z,87.47
2022-11-05T18:11:32.042Z,87.58
2022-11-05T18:13:59.024Z,87.58
2022-11-05T18:16:25.648Z,87.61
2022-11-05T18:18:52.307Z,87.96
2022-11-05T18:21:18.914Z,87.73
2022-11-05T18:23:45.773Z,88.12
2022-11-05T18:26:13.207Z,88.66
2022-11-05T18:28:39.785Z,88.23
2022-11-05T18:31:16.770Z,88.12
2022-11-05T18:33:44.591Z,87.83
2022-11-05T18:36:21.515Z,87.82
2022-11-05T18:38:48.571Z,87.38
2022-11-05T18:41:15.712Z,87.93
2022-11-05T18:43:42.296Z,87.90
2022-11-05T18:46:12.943Z,87.99
2022-11-05T18:48:50.564Z,88.32
2022-11-05T18:51:17.171Z,87.91
2022-11-05T18:53:43.791Z,88.22
2022-11-05T18:56:11.249Z,87.91
2022-11-05T18:58:38.544Z,87.59
2022-11-05T19:01:06.783Z,87.64
2022-11-05T19:03:34.029Z,87.46
2022-11-05T19:06:04.266Z,87.65
2022-11-05T19:08:32.043Z,87.61
2022-11-05T19:10:58.843Z,87.23
2022-11-05T19:13:25.452Z,87.77
2022-11-05T19:15:52.086Z,87.42
2022-11-05T19:18:18.761Z,87.64
2022-11-05T19:20:45.319Z,87.35
2022-11-05T19:23:11.940Z,87.59
2022-11-05T19:25:38.475Z,87.68
2022-11-05T19:28:05.042Z,87.72
2022-11-05T19:30:31.628Z,87.23
2022-11-05T19:32:58.389Z,87.54
2022-11-05T19:35:25.502Z,87.46
2022-11-05T19:37:53.521Z,87.32
2022-11-05T19:40:20.581Z,87.51
2022-11-05T19:42:47.339Z,87.04
2022-11-05T19:45:42.973Z,87.33
2022-11-05T19:48:00.627Z,87.31
2022-11-05T19:50:27.609Z,87.29
2022-11-05T19:52:54.203Z,87.24
2022-11-05T19:55:20.874Z,87.14
2022-11-05T19:57:47.637Z,87.07
2022-11-05T20:00:14.809Z,87.15
2022-11-05T20:02:45.343Z,87.05
2022-11-05T20:05:15.084Z,87.36
2022-11-05T20:07:41.657Z,87.24
2022-11-05T20:10:08.376Z,87.05
2022-11-05T20:12:35.850Z,87.07
2022-11-05T20:15:04.021Z,87.32
2022-11-05T20:17:30.975Z,87.28
2022-11-05T20:19:57.572Z,87.33
2022-11-05T20:22:24.513Z,87.26
2022-11-05T20:24:51.197Z,87.25
2022-11-05T20:27:18.425Z,87.27
2022-11-05T20:29:45.042Z,87.12
2022-11-05T20:32:12.659Z,87.21
2022-11-05T20:34:39.315Z,87.21
2022-11-05T20:37:05.942Z,87.21
2022-11-05T20:39:32.572Z,87.28
2022-11-05T20:42:00.581Z,87.39
2022-11-05T20:44:27.406Z,87.33
2022-11-05T20:46:54.006Z,87.27
2022-11-05T20:49:25.177Z,87.01
2022-11-05T20:51:52.465Z,87.13
2022-11-05T20:54:19.040Z,87.42
2022-11-05T20:56:45.708Z,87.23
2022-11-05T20:59:12.329Z,87.22
2022-11-05T21:01:39.047Z,87.18
2022-11-05T21:04:05.956Z,86.98
2022-11-05T21:06:33.751Z,86.63
2022-11-05T21:09:00.383Z,86.37
2022-11-05T21:11:27.306Z,86.73
2022-11-05T21:13:54.774Z,87.06
2022-11-05T21:16:21.832Z,87.49
2022-11-05T21:18:48.467Z,87.32
2022-11-05T21:21:17.514Z,87.19
2022-11-05T21:23:44.165Z,87.32
2022-11-05T21:26:11.698Z,86.97
2022-11-05T21:28:39.443Z,87.09
2022-11-05T21:31:06.806Z,87.38
2022-11-05T21:33:33.557Z,87.01
2022-11-05T21:36:05.258Z,87.21
2022-11-05T21:38:31.819Z,87.23
2022-11-05T21:41:00.443Z,87.03
2022-11-05T21:43:27.013Z,87.12
2022-11-05T21:45:53.651Z,87.08
2022-11-05T21:48:20.208Z,87.06
2022-11-05T21:51:08.922Z,86.83
2022-11-05T21:53:54.012Z,86.95
2022-11-05T21:56:41.775Z,86.97
2022-11-05T21:59:34.584Z,86.85
2022-11-05T22:02:01.800Z,86.58
2022-11-05T22:04:33.478Z,86.61
2022-11-05T22:07:00.426Z,86.86
2022-11-05T22:09:27.525Z,87.09
2022-11-05T22:11:54.481Z,87.12
2022-11-05T22:14:21.383Z,87.45
2022-11-05T22:16:48.317Z,87.19
2022-11-05T22:19:14.964Z,87.48
2022-11-05T22:21:41.655Z,87.21
2022-11-05T22:24:08.471Z,87.27
2022-11-05T22:26:35.698Z,87.16
2022-11-05T22:29:02.255Z,87.46
2022-11-05T22:31:34.719Z,87.30
2022-11-05T22:34:03.106Z,87.44
2022-11-05T22:36:29.685Z,87.28
2022-11-05T22:38:56.224Z,87.36
2022-11-05T22:41:22.829Z,87.60
2022-11-05T22:43:49.737Z,87.45
2022-11-05T22:46:20.064Z,87.39
2022-11-05T22:48:47.030Z,87.85
2022-11-05T22:51:24.444Z,88.04
2022-11-05T22:53:51.239Z,87.85
2022-11-05T22:56:19.348Z,87.58
2022-11-05T22:58:46.331Z,87.72
2022-11-05T23:01:13.446Z,87.86
2022-11-05T23:03:40.794Z,88.20
2022-11-05T23:06:27.459Z,87.97
2022-11-05T23:09:12.369Z,88.32
2022-11-05T23:11:39.991Z,88.38
2022-11-05T23:14:07.703Z,88.35
2022-11-05T23:16:53.042Z,88.59
2022-11-05T23:19:38.421Z,88.56
2022-11-05T23:22:24.402Z,88.67
2022-11-05T23:24:51.065Z,88.88
2022-11-05T23:27:17.601Z,89.34
2022-11-05T23:29:44.185Z,89.12
2022-11-05T23:32:26.018Z,89.00
2022-11-05T23:34:53.350Z,88.41
2022-11-05T23:37:38.805Z,88.13
2022-11-05T23:40:07.148Z,87.70
2022-11-05T23:42:52.038Z,88.24
2022-11-05T23:45:37.263Z,88.23
2022-11-05T23:48:18.333Z,88.78
2022-11-05T23:50:46.389Z,88.76
2022-11-05T23:53:12.983Z,88.64
2022-11-05T23:55:39.812Z,88.44
2022-11-05T23:58:06.803Z,88.18
